Weather at Royal Melbourne Hospital Helipad

Public forecast

Using degrees Celsius for public forecast. Weather courtesy of forecast.io.

Closest aviation weather report (METAR) to Royal Melbourne Hospital Helipad

Closest report is Melbourne International Airport, 9.3 nm (17.2 km) NW.

2024/06/15 03:30 (retrieved 31 minutes ago)

YMML 150330Z 17010KT 9999 FEW022 BKN025 12/07 Q1021 RF000/0000

Closest aviation forecast (TAF) to Royal Melbourne Hospital Helipad

Forecast is more than 12 hours old.

Closest forecast is Koumac Airport, 1,442.0 nm (2,670.6 km) NE.

2024/06/13 18:00 Ammendment (retrieved 1 day ago)

TAF AMD NWWE 131700Z 1318/1418 CNL TAF AMD NWWK 131700Z 1318/1418 CNL